Terminal Aerodrome Forecast
Issued by NWS Charleston, WV

Current Version | Previous Version | Text Only | Print | Product List | Glossary Off
Versions: 1 2 3 4 5 6 7 8 9 10 11 12 13 14 15 16 17 18 19 20 21 22 23 24

849
FTUS41 KRLX 221329 AAA
TAFCRW
TAF AMD
KCRW 221329Z 2213/2312 00000KT 1/4SM FG VV001
      TEMPO 2214/2215 2SM BR BKN002
     FM221500 00000KT 3SM BR BKN002
      TEMPO 2215/2216 6SM BR SCT002
     FM221600 04003KT P6SM FEW050 SCT250
     FM230000 00000KT P6SM SKC
     FM230700 00000KT 4SM BR SKC
     FM230900 00000KT 1/4SM FG VV001=

USA.gov is the U.S. government's official web portal to all federal, state and local government web resources and services.